Time;durP1;ratioP1;P1;durP2;ratioP2;P2;SDS_P1;SDS_P2;PMS_P1;PMS_P2;Temp;Humidity;BMP_temperature;BMP_pressure;BME280_temperature;BME280_humidity;BME280_pressure;Samples;Min_cycle;Max_cycle;Signal;HPM_P1;HPM_P2
2023/12/01 00:00:06;;;;;;;;;;;;;;;7.64;100.00;98011.47;6244156;22;19915;-83
2023/12/01 00:02:31;;;;;;;;;;;;;;;7.67;100.00;98013.94;6275784;22;20338;-89
2023/12/01 00:04:56;;;;;;;;;;;;;;;7.66;100.00;98001.72;6248528;22;19915;-85
2023/12/01 00:07:22;;;;;;;;;;;;;;;7.64;100.00;98003.56;6268489;22;20338;-84
2023/12/01 00:09:47;;;;;;;;;;;;;;;7.64;100.00;98011.47;6244068;22;19912;-84
2023/12/01 00:12:12;;;;;;;;;;;;;;;7.67;100.00;98018.38;6248751;22;20398;-84
2023/12/01 00:14:40;;;;;;;;;;;;;;;7.65;100.00;98018.44;6273970;22;19919;-83
2023/12/01 00:17:05;;;;;;;;;;;;;;;7.66;100.00;98009.63;6276051;22;19918;-88
2023/12/01 00:19:31;;;;;;;;;;;;;;;7.67;100.00;97989.38;6249269;22;19911;-89
2023/12/01 00:21:57;;;;;;;;;;;;;;;7.67;100.00;98007.81;6250835;22;19911;-91
2023/12/01 00:24:22;;;;;;;;;;;;;;;7.67;100.00;98032.38;6252332;22;20334;-89
2023/12/01 00:26:48;;;;;;;;;;;;;;;7.70;100.00;98037.47;6251800;22;19915;-86
2023/12/01 00:29:13;;;;;;;;;;;;;;;7.70;100.00;98036.63;6276013;22;19965;-85
2023/12/01 00:31:38;;;;;;;;;;;;;;;7.70;100.00;98024.28;6246953;22;19919;-87
2023/12/01 00:34:03;;;;;;;;;;;;;;;7.70;100.00;98015.53;6275435;22;19919;-85
2023/12/01 00:36:29;;;;;;;;;;;;;;;7.70;100.00;98021.66;6275589;22;19923;-86
2023/12/01 00:38:54;;;;;;;;;;;;;;;7.68;100.00;98028.81;6248786;22;19911;-86
2023/12/01 00:41:19;;;;;;;;;;;;;;;7.70;100.00;98026.94;6248408;22;20286;-85
2023/12/01 00:43:44;;;;;;;;;;;;;;;7.69;100.00;98033.16;6275674;22;20216;-85
2023/12/01 00:46:10;;;;;;;;;;;;;;;7.70;100.00;98034.84;6246946;22;19945;-86
2023/12/01 00:48:35;;;;;;;;;;;;;;;7.69;100.00;98029.66;6275642;22;19911;-86
2023/12/01 00:51:01;;;;;;;;;;;;;;;7.70;100.00;98026.09;6276868;22;19947;-85
2023/12/01 00:53:27;;;;;;;;;;;;;;;7.69;100.00;98025.25;6249539;22;19938;-86
2023/12/01 06:19:33;;;;;;;;;;;;;;;7.16;100.00;98174.06;6251809;22;19930;-79
2023/12/01 06:21:58;;;;;;;;;;;;;;;7.19;100.00;98174.75;6275631;22;19915;-82
2023/12/01 06:24:24;;;;;;;;;;;;;;;7.22;100.00;98169.31;6276701;22;19919;-82
2023/12/01 06:26:49;;;;;;;;;;;;;;;7.24;100.00;98161.31;6276506;22;20324;-83
2023/12/01 06:29:15;;;;;;;;;;;;;;;7.27;100.00;98166.44;6277007;22;19961;-83
2023/12/01 06:31:40;;;;;;;;;;;;;;;7.30;100.00;98168.91;6276829;22;19915;-84
2023/12/01 06:34:06;;;;;;;;;;;;;;;7.32;100.00;98174.91;6274955;22;20005;-82
2023/12/01 06:36:31;;;;;;;;;;;;;;;7.33;100.00;98170.53;6276849;22;20234;-84
2023/12/01 06:38:56;;;;;;;;;;;;;;;7.34;100.00;98170.44;6276764;22;20232;-80
2023/12/01 06:41:21;;;;;;;;;;;;;;;7.38;100.00;98190.41;6276632;22;19939;-79
2023/12/01 06:43:46;;;;;;;;;;;;;;;7.40;100.00;98187.69;6276429;22;20045;-81
2023/12/01 06:46:12;;;;;;;;;;;;;;;7.42;100.00;98181.41;6249449;22;19911;-83
2023/12/01 06:48:37;;;;;;;;;;;;;;;7.42;100.00;98184.03;6247360;22;19923;-80
2023/12/01 06:51:03;;;;;;;;;;;;;;;7.44;100.00;98194.50;6249221;22;19946;-82
2023/12/01 06:53:28;;;;;;;;;;;;;;;7.46;100.00;98193.44;6276774;22;19911;-80
2023/12/01 06:55:53;;;;;;;;;;;;;;;7.48;100.00;98195.16;6276350;22;20335;-84
2023/12/01 06:58:18;;;;;;;;;;;;;;;7.50;100.00;98188.00;6276667;22;19938;-80
2023/12/01 07:00:45;;;;;;;;;;;;;;;7.50;100.00;98183.63;6276670;22;19911;-84
2023/12/01 07:03:10;;;;;;;;;;;;;;;7.51;100.00;98182.66;6276262;22;20010;-84
2023/12/01 07:05:37;;;;;;;;;;;;;;;7.51;100.00;98187.09;6275580;22;19912;-82
2023/12/01 07:08:03;;;;;;;;;;;;;;;7.52;100.00;98175.63;6276265;22;20312;-83
2023/12/01 07:10:29;;;;;;;;;;;;;;;7.54;100.00;98171.09;6249122;22;19993;-83
2023/12/01 07:12:54;;;;;;;;;;;;;;;7.56;100.00;98171.88;6248909;22;20358;-81
2023/12/01 07:15:20;;;;;;;;;;;;;;;7.57;100.00;98181.47;6276497;22;19973;-83
2023/12/01 07:17:50;;;;;;;;;;;;;;;7.58;100.00;98191.94;6276313;22;19911;-82
2023/12/01 07:20:15;;;;;;;;;;;;;;;7.61;100.00;98190.91;6247283;22;19919;-82
2023/12/01 07:22:42;;;;;;;;;;;;;;;7.60;100.00;98200.59;6249291;22;19911;-83
2023/12/01 07:25:10;;;;;;;;;;;;;;;7.62;100.00;98204.00;6248946;22;19911;-83
2023/12/01 07:27:36;;;;;;;;;;;;;;;7.62;100.00;98204.00;6276036;22;19922;-81
2023/12/01 07:30:01;;;;;;;;;;;;;;;7.64;100.00;98217.09;6249230;22;20001;-82
2023/12/01 07:32:26;;;;;;;;;;;;;;;7.64;100.00;98217.09;6276594;22;20311;-82
2023/12/01 07:34:51;;;;;;;;;;;;;;;7.66;100.00;98220.50;6274292;22;19915;-82
2023/12/01 07:37:17;;;;;;;;;;;;;;;7.67;100.00;98216.91;6276272;22;19918;-80
2023/12/01 07:39:42;;;;;;;;;;;;;;;7.69;100.00;98225.63;6275968;22;19922;-81
2023/12/01 07:42:08;;;;;;;;;;;;;;;7.70;100.00;98221.19;6276209;22;20280;-83
2023/12/01 07:44:33;;;;;;;;;;;;;;;7.68;100.00;98221.28;6275989;22;19915;-82
2023/12/01 07:46:58;;;;;;;;;;;;;;;7.71;100.00;98215.81;6275832;22;19918;-83
2023/12/01 07:49:23;;;;;;;;;;;;;;;7.71;100.00;98215.81;6247309;22;20005;-83
2023/12/01 07:51:49;;;;;;;;;;;;;;;7.70;100.00;98221.19;6275949;22;19919;-83
2023/12/01 07:54:14;;;;;;;;;;;;;;;7.72;100.00;98220.16;6276095;22;19915;-83
2023/12/01 07:56:39;;;;;;;;;;;;;;;7.74;100.00;98231.47;6276202;22;19915;-83
2023/12/01 07:59:06;;;;;;;;;;;;;;;7.73;100.00;98227.13;6275507;22;19986;-84
2023/12/01 08:01:31;;;;;;;;;;;;;;;7.74;100.00;98218.28;6248602;22;20340;-83
2023/12/01 08:03:56;;;;;;;;;;;;;;;7.73;100.00;98206.03;6274565;22;19935;-83
2023/12/01 08:06:22;;;;;;;;;;;;;;;7.75;100.00;98204.16;6275970;22;19922;-84
2023/12/01 08:08:47;;;;;;;;;;;;;;;7.76;100.00;98205.88;6276191;22;19970;-87
2023/12/01 08:44:01;;;;;;;;;;;;;;;4.59;100.00;98253.94;6254787;22;20026;-83
2023/12/01 08:46:26;;;;;;;;;;;;;;;4.49;100.00;98236.88;6275165;22;19937;-84
2023/12/01 08:48:52;;;;;;;;;;;;;;;4.45;100.00;98251.03;6275863;22;19915;-84
2023/12/01 08:51:17;;;;;;;;;;;;;;;5.08;100.00;98253.56;6275648;22;20000;-85
2023/12/01 08:53:43;;;;;;;;;;;;;;;5.67;100.00;98248.25;6276164;22;20047;-85
2023/12/01 08:56:09;;;;;;;;;;;;;;;6.00;100.00;98236.13;6275676;22;19993;-87
2023/12/01 08:58:35;;;;;;;;;;;;;;;6.25;100.00;98232.28;6274078;22;19911;-89
2023/12/01 09:01:02;;;;;;;;;;;;;;;6.45;100.00;98231.28;6275639;22;19911;-86
2023/12/01 09:03:27;;;;;;;;;;;;;;;6.57;100.00;98224.53;6249933;22;20230;-81
2023/12/01 09:05:53;;;;;;;;;;;;;;;6.67;100.00;98233.69;6275901;22;19950;-87
2023/12/01 09:08:18;;;;;;;;;;;;;;;6.76;100.00;98232.34;6275054;22;20319;-84
2023/12/01 09:10:43;;;;;;;;;;;;;;;6.85;100.00;98234.50;6274890;22;19943;-85
2023/12/01 09:13:10;;;;;;;;;;;;;;;6.93;100.00;98247.28;6275885;22;20246;-82
2023/12/01 09:15:35;;;;;;;;;;;;;;;6.97;100.00;98243.53;6277347;22;19911;-89
2023/12/01 09:18:00;;;;;;;;;;;;;;;7.01;100.00;98245.06;6250240;22;19911;-87
2023/12/01 09:20:25;;;;;;;;;;;;;;;7.05;100.00;98254.53;6277215;22;20018;-91
2023/12/01 09:22:51;;;;;;;;;;;;;;;7.10;100.00;98254.28;6277895;22;19919;-84
2023/12/01 09:25:16;;;;;;;;;;;;;;;7.15;100.00;98254.03;6277375;22;20013;-85
2023/12/01 09:27:41;;;;;;;;;;;;;;;7.19;100.00;98258.19;6279030;22;20239;-90
2023/12/01 09:30:13;;;;;;;;;;;;;;;7.21;100.00;98257.19;6279005;22;19915;-85
2023/12/01 09:32:39;;;;;;;;;;;;;;;7.25;100.00;98263.16;6277080;22;20332;-87
2023/12/01 09:35:05;;;;;;;;;;;;;;;7.28;100.00;98268.25;6277131;22;19973;-88
2023/12/01 09:37:30;;;;;;;;;;;;;;;7.29;100.00;98262.03;6277479;22;19946;-85
2023/12/01 09:39:55;;;;;;;;;;;;;;;7.32;100.00;98267.13;6277040;22;19915;-84
2023/12/01 09:42:22;;;;;;;;;;;;;;;7.33;100.00;98260.94;6275497;22;19954;-83
2023/12/01 09:44:49;;;;;;;;;;;;;;;7.37;100.00;98266.91;6276740;22;19915;-84
2023/12/01 09:47:17;;;;;;;;;;;;;;;7.40;100.00;98258.81;6276909;22;20334;-86
2023/12/01 09:49:44;;;;;;;;;;;;;;;7.42;100.00;98264.88;6276943;22;19918;-84
2023/12/01 09:52:10;;;;;;;;;;;;;;;7.43;100.00;98264.78;6277019;22;19923;-86
2023/12/01 09:54:35;;;;;;;;;;;;;;;7.45;100.00;98260.28;6277128;22;19912;-85
2023/12/01 09:57:03;;;;;;;;;;;;;;;7.47;100.00;98260.22;6276844;22;19915;-84
2023/12/01 09:59:29;;;;;;;;;;;;;;;7.48;100.00;98259.25;6249159;22;20275;-84
2023/12/01 10:01:54;;;;;;;;;;;;;;;7.50;100.00;98256.53;6276670;22;19946;-85
2023/12/01 10:04:20;;;;;;;;;;;;;;;7.53;100.00;98254.59;6276824;22;19953;-85
2023/12/01 10:06:46;;;;;;;;;;;;;;;7.54;100.00;98250.19;6276651;22;19950;-84
2023/12/01 10:09:12;;;;;;;;;;;;;;;7.55;100.00;98251.88;6276989;22;19922;-86
2023/12/01 10:11:45;;;;;;;;;;;;;;;7.55;100.00;98234.28;6277626;22;19907;-92
2023/12/01 10:14:10;;;;;;;;;;;;;;;7.57;100.00;98231.56;6276483;22;19911;-87
2023/12/01 10:16:36;;;;;;;;;;;;;;;7.58;100.00;98249.09;6276748;22;19995;-85
2023/12/01 10:19:05;;;;;;;;;;;;;;;7.58;100.00;98260.47;6276768;22;20212;-91
2023/12/01 10:21:47;;;;;;;;;;;;;;;7.61;100.00;98264.72;6276886;22;20310;-86
2023/12/01 10:24:12;;;;;;;;;;;;;;;7.61;100.00;98260.31;6249386;22;19915;-85
2023/12/01 10:26:38;;;;;;;;;;;;;;;7.60;100.00;98248.06;6276853;22;19912;-87
2023/12/01 10:29:04;;;;;;;;;;;;;;;7.63;100.00;98255.78;6248211;22;19977;-87
2023/12/01 10:31:29;;;;;;;;;;;;;;;7.64;100.00;98260.13;6276517;22;19946;-87
2023/12/01 10:33:54;;;;;;;;;;;;;;;7.63;100.00;98250.53;6276446;22;19915;-87
2023/12/01 10:36:20;;;;;;;;;;;;;;;7.64;100.00;98246.97;6249780;22;19911;-88
2023/12/01 10:38:46;;;;;;;;;;;;;;;7.65;100.00;98245.16;6277654;22;19985;-86
2023/12/01 10:41:12;;;;;;;;;;;;;;;7.67;100.00;98245.91;6249444;22;19957;-86
2023/12/01 10:43:38;;;;;;;;;;;;;;;7.67;100.00;98245.91;6247985;22;20315;-87
2023/12/01 10:46:05;;;;;;;;;;;;;;;7.68;100.00;98249.44;6227125;23;19930;-85
2023/12/01 10:48:32;;;;;;;;;;;;;;;7.69;100.00;98251.09;6219391;23;19911;-87
2023/12/01 10:50:57;;;;;;;;;;;;;;;7.68;100.00;98234.44;6245920;23;19913;-86
2023/12/01 10:53:24;;;;;;;;;;;;;;;7.70;100.00;98242.28;6245873;23;19962;-87
2023/12/01 10:55:51;;;;;;;;;;;;;;;7.71;100.00;98233.44;6246122;23;20231;-86
2023/12/01 10:58:23;;;;;;;;;;;;;;;7.70;100.00;98211.47;6217732;23;19965;-87
2023/12/01 11:00:49;;;;;;;;;;;;;;;7.72;100.00;98211.38;6218461;23;19943;-87
2023/12/01 11:03:17;;;;;;;;;;;;;;;7.75;100.00;98214.69;6245463;23;19915;-89
2023/12/01 11:05:43;;;;;;;;;;;;;;;7.75;100.00;98212.06;6245663;23;19911;-89
2023/12/01 11:08:15;;;;;;;;;;;;;;;7.73;100.00;98213.94;6219249;23;19965;-88
2023/12/01 11:10:49;;;;;;;;;;;;;;;7.77;100.00;98220.75;6245504;23;19911;-88
2023/12/01 11:13:22;;;;;;;;;;;;;;;7.75;100.00;98219.97;6243943;23;19954;-88
2023/12/01 11:15:54;;;;;;;;;;;;;;;7.78;100.00;98205.78;6219010;23;19912;-85
2023/12/01 11:18:20;;;;;;;;;;;;;;;7.32;100.00;98195.16;6218597;23;19929;-87
2023/12/01 11:20:49;;;;;;;;;;;;;;;6.07;100.00;98196.41;6218941;23;20324;-89
2023/12/01 11:23:21;;;;;;;;;;;;;;;5.68;100.00;98205.25;6219351;23;19908;-86
2023/12/01 11:25:55;;;;;;;;;;;;;;;5.31;100.00;98209.63;6218701;23;19915;-90
2023/12/01 11:31:08;;;;;;;;;;;;;;;5.22;100.00;98214.38;6255733;23;20320;-86
2023/12/01 11:33:38;;;;;;;;;;;;;;;5.02;100.00;98215.28;6218467;23;20347;-82
2023/12/01 11:36:23;;;;;;;;;;;;;;;4.95;100.00;98244.53;6218534;23;19923;-86
2023/12/01 11:39:16;;;;;;;;;;;;;;;4.95;100.00;98257.66;6245653;23;19912;-88
2023/12/01 11:41:41;;;;;;;;;;;;;;;4.70;100.00;98261.34;6245861;23;19961;-86
2023/12/01 11:44:17;;;;;;;;;;;;;;;4.65;100.00;98268.56;6216998;23;19916;-91
2023/12/01 11:46:47;;;;;;;;;;;;;;;4.65;100.00;98265.94;6249084;22;19915;-91
2023/12/01 11:49:14;;;;;;;;;;;;;;;4.57;100.00;98270.66;6249021;22;20385;-90
2023/12/01 11:51:40;;;;;;;;;;;;;;;4.60;100.00;98275.78;6249319;22;19950;-81
2023/12/01 11:54:08;;;;;;;;;;;;;;;4.62;100.00;98280.03;6275698;22;20243;-86
2023/12/01 11:56:43;;;;;;;;;;;;;;;5.08;100.00;98285.06;6248709;22;19919;-86
2023/12/01 11:59:08;;;;;;;;;;;;;;;5.71;100.00;98276.06;6274206;22;20224;-81
2023/12/01 12:01:34;;;;;;;;;;;;;;;6.06;100.00;98276.19;6248867;22;19918;-91
2023/12/01 12:03:59;;;;;;;;;;;;;;;6.28;100.00;98268.97;6276312;22;19907;-85
2023/12/01 12:06:25;;;;;;;;;;;;;;;6.46;100.00;98266.34;6248750;22;19911;-86
2023/12/01 12:08:51;;;;;;;;;;;;;;;6.60;100.00;98268.28;6275798;22;20330;-86
2023/12/01 12:11:17;;;;;;;;;;;;;;;6.69;100.00;98265.19;6271213;22;19916;-87
2023/12/01 12:13:42;;;;;;;;;;;;;;;6.75;100.00;98248.22;6274040;22;19934;-87
2023/12/01 12:16:07;;;;;;;;;;;;;;;6.85;100.00;98263.47;6276363;22;19918;-86
2023/12/01 12:18:36;;;;;;;;;;;;;;;6.91;100.00;98275.47;6276933;22;19919;-86
2023/12/01 12:21:05;;;;;;;;;;;;;;;6.96;100.00;98289.25;6275803;22;19934;-88
2023/12/01 12:23:30;;;;;;;;;;;;;;;6.99;100.00;98286.44;6248579;22;19922;-90
2023/12/01 12:26:14;;;;;;;;;;;;;;;7.04;100.00;98275.69;6248837;22;20298;-88
2023/12/01 12:28:45;;;;;;;;;;;;;;;7.06;100.00;98271.16;6247412;22;20227;-88
2023/12/01 12:31:12;;;;;;;;;;;;;;;7.10;100.00;98275.38;6276070;22;20013;-86
2023/12/01 12:33:39;;;;;;;;;;;;;;;7.14;100.00;98270.78;6248874;22;20319;-86
2023/12/01 12:36:05;;;;;;;;;;;;;;;7.16;100.00;98268.91;6275888;22;20001;-86
2023/12/01 12:38:31;;;;;;;;;;;;;;;7.20;100.00;98267.81;6276813;22;19911;-82
2023/12/01 12:40:58;;;;;;;;;;;;;;;7.20;100.00;98252.84;6276010;22;19939;-89
2023/12/01 12:43:24;;;;;;;;;;;;;;;7.23;100.00;98265.88;6274625;22;19915;-84
2023/12/01 12:45:49;;;;;;;;;;;;;;;7.25;100.00;98265.78;6276254;22;19938;-86
2023/12/01 12:48:15;;;;;;;;;;;;;;;7.26;100.00;98255.16;6250859;22;19955;-89
2023/12/01 12:50:45;;;;;;;;;;;;;;;7.31;100.00;98251.41;6277692;22;19911;-91
2023/12/01 12:53:11;;;;;;;;;;;;;;;7.32;100.00;98247.84;6277687;22;19922;-91
2023/12/01 12:55:36;;;;;;;;;;;;;;;7.32;100.00;98240.78;6250480;22;19911;-86
2023/12/01 12:58:02;;;;;;;;;;;;;;;7.35;100.00;98245.91;6248854;22;20395;-87
2023/12/01 13:00:27;;;;;;;;;;;;;;;7.35;100.00;98248.53;6250468;22;19922;-89
2023/12/01 13:03:00;;;;;;;;;;;;;;;7.38;100.00;98235.19;6277428;22;19911;-87
2023/12/01 13:05:26;;;;;;;;;;;;;;;7.39;100.00;98247.44;6250210;22;20282;-85
2023/12/01 13:07:52;;;;;;;;;;;;;;;7.41;100.00;98242.94;6277869;22;19986;-89
2023/12/01 13:10:23;;;;;;;;;;;;;;;7.41;100.00;98234.19;6277478;22;20280;-94
2023/12/01 13:12:49;;;;;;;;;;;;;;;7.41;100.00;98242.94;6248754;22;20274;-89
2023/12/01 13:15:14;;;;;;;;;;;;;;;7.43;100.00;98246.31;6277436;22;19962;-87
2023/12/01 13:17:40;;;;;;;;;;;;;;;7.46;100.00;98245.31;6277948;22;20312;-91
2023/12/01 13:20:07;;;;;;;;;;;;;;;7.46;100.00;98240.06;6277500;22;19915;-89
2023/12/01 13:22:32;;;;;;;;;;;;;;;7.48;100.00;98245.25;6277428;22;19918;-87
2023/12/01 13:24:58;;;;;;;;;;;;;;;7.50;100.00;98246.88;6253680;22;19998;-87
2023/12/01 13:27:23;;;;;;;;;;;;;;;7.51;100.00;98253.81;6276130;22;19915;-83
2023/12/01 13:29:49;;;;;;;;;;;;;;;7.51;100.00;98248.53;6277001;22;19998;-88
2023/12/01 13:32:14;;;;;;;;;;;;;;;7.52;100.00;98247.63;6250161;22;19915;-93
2023/12/01 13:35:08;;;;;;;;;;;;;;;7.53;100.00;98253.75;6277214;22;20335;-91
2023/12/01 13:37:35;;;;;;;;;;;;;;;7.53;100.00;98246.69;6236932;22;19921;-84
2023/12/01 13:40:01;;;;;;;;;;;;;;;7.54;100.00;98248.38;6250008;22;19989;-89
2023/12/01 13:42:29;;;;;;;;;;;;;;;7.57;100.00;98253.50;6275648;22;20379;-90
2023/12/01 13:44:55;;;;;;;;;;;;;;;7.58;100.00;98244.66;6276927;22;19915;-89
2023/12/01 13:47:21;;;;;;;;;;;;;;;7.60;100.00;98241.94;6277056;22;20354;-88
2023/12/01 13:49:46;;;;;;;;;;;;;;;7.61;100.00;98238.34;6249976;22;19911;-86
2023/12/01 13:52:11;;;;;;;;;;;;;;;7.61;100.00;98238.34;6277409;22;19911;-90
2023/12/01 13:54:36;;;;;;;;;;;;;;;7.63;100.00;98241.78;6250341;22;19919;-87
2023/12/01 13:57:02;;;;;;;;;;;;;;;7.66;100.00;98241.59;6276776;22;19990;-91
2023/12/01 13:59:27;;;;;;;;;;;;;;;7.64;100.00;98243.44;6275464;22;20396;-89
2023/12/01 14:01:53;;;;;;;;;;;;;;;7.64;100.00;98243.44;6249828;22;20346;-91
2023/12/01 14:04:18;;;;;;;;;;;;;;;7.64;100.00;98246.09;6277399;22;19915;-87
2023/12/01 14:06:44;;;;;;;;;;;;;;;7.65;100.00;98250.44;6249820;22;19938;-89
2023/12/01 14:09:09;;;;;;;;;;;;;;;7.66;100.00;98240.72;6250339;22;19911;-90
2023/12/01 14:11:34;;;;;;;;;;;;;;;7.67;100.00;98248.56;6250019;22;19911;-90
2023/12/01 14:14:00;;;;;;;;;;;;;;;7.67;100.00;98253.81;6277210;22;19919;-84
2023/12/01 14:16:25;;;;;;;;;;;;;;;7.68;100.00;98258.19;6251723;22;20354;-90
2023/12/01 14:18:50;;;;;;;;;;;;;;;7.68;100.00;98250.28;6276888;22;19911;-92
2023/12/01 14:21:16;;;;;;;;;;;;;;;7.70;100.00;98263.38;6277480;22;20338;-89
2023/12/01 14:23:41;;;;;;;;;;;;;;;7.70;100.00;98264.22;6251082;22;19911;-87
2023/12/01 14:26:06;;;;;;;;;;;;;;;7.72;100.00;98269.41;6276706;22;19911;-89
2023/12/01 14:28:32;;;;;;;;;;;;;;;7.72;100.00;98270.28;6275429;22;19934;-88
2023/12/01 14:30:57;;;;;;;;;;;;;;;7.72;100.00;98278.19;6249974;22;19939;-89
2023/12/01 14:33:23;;;;;;;;;;;;;;;7.72;100.00;98287.84;6249481;22;20325;-87
2023/12/01 14:35:49;;;;;;;;;;;;;;;7.72;100.00;98296.63;6250383;22;19915;-87
2023/12/01 14:38:14;;;;;;;;;;;;;;;7.71;100.00;98297.56;6276468;22;19911;-87
2023/12/01 14:40:39;;;;;;;;;;;;;;;7.71;100.00;98297.56;6276714;22;20300;-81
2023/12/01 14:43:04;;;;;;;;;;;;;;;7.72;100.00;98296.63;6275021;22;19911;-85
2023/12/01 14:45:30;;;;;;;;;;;;;;;7.72;100.00;98294.00;6276432;22;20008;-83
2023/12/01 14:47:55;;;;;;;;;;;;;;;7.72;100.00;98291.34;6249712;22;19929;-83
2023/12/01 14:50:20;;;;;;;;;;;;;;;7.73;100.00;98287.75;6276344;22;20303;-87
2023/12/01 14:52:46;;;;;;;;;;;;;;;7.74;100.00;98281.56;6276213;22;19917;-83
2023/12/01 14:55:11;;;;;;;;;;;;;;;7.76;100.00;98286.75;6249137;22;19915;-84
2023/12/01 14:57:36;;;;;;;;;;;;;;;7.76;100.00;98286.75;6274735;22;19941;-85
2023/12/01 15:00:07;;;;;;;;;;;;;;;7.77;100.00;98281.41;6276419;22;20359;-90
2023/12/01 15:02:32;;;;;;;;;;;;;;;7.78;100.00;98303.34;6276297;22;20220;-86
2023/12/01 15:05:00;;;;;;;;;;;;;;;7.76;100.00;98287.59;6276571;22;19919;-90
2023/12/01 15:07:26;;;;;;;;;;;;;;;6.38;100.00;98281.66;6249539;22;19941;-87
2023/12/01 15:09:51;;;;;;;;;;;;;;;5.82;100.00;98293.06;6249197;22;19954;-89
2023/12/01 15:12:16;;;;;;;;;;;;;;;5.63;100.00;98295.69;6275197;22;19911;-87
2023/12/01 15:14:42;;;;;;;;;;;;;;;5.35;100.00;98279.50;6275817;22;19922;-86
2023/12/01 15:17:08;;;;;;;;;;;;;;;5.26;100.00;98289.50;6249279;22;19911;-86
2023/12/01 15:19:33;;;;;;;;;;;;;;;5.01;100.00;98296.75;6275925;22;19912;-88
2023/12/01 15:21:58;;;;;;;;;;;;;;;4.98;100.00;98302.13;6249597;22;20275;-88
2023/12/01 15:24:23;;;;;;;;;;;;;;;4.91;100.00;98307.66;6276230;22;19923;-87
2023/12/01 15:26:51;;;;;;;;;;;;;;;4.86;100.00;98303.53;6276320;22;20319;-90
2023/12/01 15:29:16;;;;;;;;;;;;;;;4.84;100.00;98295.72;6247911;22;19911;-88
2023/12/01 15:31:41;;;;;;;;;;;;;;;4.73;100.00;98274.31;6276405;22;19907;-93
2023/12/01 15:34:07;;;;;;;;;;;;;;;4.69;100.00;98272.75;6276409;22;20320;-83
2023/12/01 15:36:32;;;;;;;;;;;;;;;4.48;100.00;98277.13;6276561;22;19915;-90
2023/12/01 15:38:58;;;;;;;;;;;;;;;4.43;100.00;98285.19;6275953;22;20324;-89
2023/12/01 15:41:24;;;;;;;;;;;;;;;4.39;100.00;98277.53;6275947;22;20331;-88
2023/12/01 15:43:49;;;;;;;;;;;;;;;5.22;100.00;98261.66;6247641;22;19959;-89
2023/12/01 15:46:14;;;;;;;;;;;;;;;5.77;100.00;98268.75;6275783;22;19949;-87
2023/12/01 15:48:40;;;;;;;;;;;;;;;6.13;100.00;98282.88;6277137;22;19911;-88
2023/12/01 15:51:06;;;;;;;;;;;;;;;6.34;100.00;98297.59;6276063;22;19943;-86
2023/12/01 15:53:31;;;;;;;;;;;;;;;6.49;100.00;98305.66;6275782;22;20243;-86
2023/12/01 15:55:57;;;;;;;;;;;;;;;6.60;100.00;98319.13;6276568;22;19915;-85
2023/12/01 15:58:22;;;;;;;;;;;;;;;6.70;100.00;98314.25;6274348;22;19908;-88
2023/12/01 16:00:48;;;;;;;;;;;;;;;6.77;100.00;98310.41;6248645;22;19986;-89
2023/12/01 16:03:14;;;;;;;;;;;;;;;6.86;100.00;98315.19;6248805;22;19986;-85
2023/12/01 16:05:40;;;;;;;;;;;;;;;6.91;100.00;98312.34;6275704;22;20331;-84
2023/12/01 16:08:05;;;;;;;;;;;;;;;6.95;100.00;98315.66;6275659;22;19947;-89
2023/12/01 16:10:31;;;;;;;;;;;;;;;7.00;100.00;98300.47;6248679;22;19907;-86
2023/12/01 16:12:56;;;;;;;;;;;;;;;7.03;100.00;98310.84;6274245;22;19996;-83
2023/12/01 16:15:22;;;;;;;;;;;;;;;7.06;100.00;98305.41;6275773;22;19916;-87
2023/12/01 16:17:47;;;;;;;;;;;;;;;7.10;100.00;98304.34;6275629;22;19985;-86
2023/12/01 16:20:12;;;;;;;;;;;;;;;7.13;100.00;98295.41;6276103;22;19918;-92
2023/12/01 16:22:38;;;;;;;;;;;;;;;7.17;100.00;98312.75;6277872;22;20022;-90
2023/12/01 16:25:03;;;;;;;;;;;;;;;7.18;100.00;98314.44;6278034;22;19953;-78
2023/12/01 16:27:28;;;;;;;;;;;;;;;7.24;100.00;98303.59;6276392;22;19962;-84
2023/12/01 16:29:53;;;;;;;;;;;;;;;7.24;100.00;98307.09;6250769;22;19996;-87
2023/12/01 16:32:19;;;;;;;;;;;;;;;7.49;100.00;98310.22;6277834;22;19998;-86
2023/12/01 16:34:44;;;;;;;;;;;;;;;7.49;100.00;98320.75;6250987;22;20434;-88
2023/12/01 16:37:41;;;;;;;;;;;;;;;7.38;100.00;98322.16;6250439;22;19950;-88
2023/12/01 16:40:28;;;;;;;;;;;;;;;7.36;100.00;98317.91;6250299;22;19919;-88
2023/12/01 16:42:53;;;;;;;;;;;;;;;7.34;100.00;98320.63;6249007;22;19915;-84
2023/12/01 16:45:19;;;;;;;;;;;;;;;7.34;100.00;98317.13;6277482;22;20224;-90
2023/12/01 16:47:47;;;;;;;;;;;;;;;7.35;100.00;98319.69;6277498;22;20437;-89
2023/12/01 16:50:13;;;;;;;;;;;;;;;7.36;100.00;98324.03;6277377;22;20001;-87
2023/12/01 16:52:38;;;;;;;;;;;;;;;7.38;100.00;98327.41;6277503;22;20232;-84
2023/12/01 16:55:07;;;;;;;;;;;;;;;7.38;100.00;98327.41;6277594;22;19973;-87
2023/12/01 16:57:39;;;;;;;;;;;;;;;7.39;100.00;98334.41;6275746;22;19917;-89
2023/12/01 17:00:05;;;;;;;;;;;;;;;7.40;100.00;98340.53;6277935;22;19921;-85
2023/12/01 17:02:33;;;;;;;;;;;;;;;7.41;100.00;98337.81;6250477;22;19951;-87
2023/12/01 17:04:59;;;;;;;;;;;;;;;7.41;100.00;98321.16;6250403;22;20350;-84
2023/12/01 17:07:29;;;;;;;;;;;;;;;7.42;100.00;98315.81;6274915;22;19915;-85
2023/12/01 17:09:54;;;;;;;;;;;;;;;7.40;100.00;98309.78;6212445;23;19935;-88
2023/12/01 17:12:20;;;;;;;;;;;;;;;7.43;100.00;98300.81;6245849;23;19916;-88
2023/12/01 17:14:55;;;;;;;;;;;;;;;7.45;100.00;98305.09;6244556;23;19934;-84
2023/12/01 17:17:21;;;;;;;;;;;;;;;7.45;100.00;98307.72;6220521;22;19911;-88
2023/12/01 17:19:47;;;;;;;;;;;;;;;7.46;100.00;98309.41;6250169;22;19922;-90
2023/12/01 17:22:12;;;;;;;;;;;;;;;7.49;100.00;98318.13;6250000;22;19915;-85
2023/12/01 17:24:41;;;;;;;;;;;;;;;7.50;100.00;98327.69;6277795;22;19926;-92
2023/12/01 17:27:07;;;;;;;;;;;;;;;7.49;100.00;98323.38;6250105;22;20312;-86
2023/12/01 17:29:33;;;;;;;;;;;;;;;7.51;100.00;98319.72;6235709;22;20224;-86
2023/12/01 17:32:00;;;;;;;;;;;;;;;7.54;100.00;98329.25;6249741;22;19918;-89
2023/12/01 17:34:25;;;;;;;;;;;;;;;7.54;100.00;98342.44;6250163;22;19922;-82
2023/12/01 17:36:56;;;;;;;;;;;;;;;7.56;100.00;98340.56;6277794;22;19990;-88
2023/12/01 17:39:29;;;;;;;;;;;;;;;7.55;100.00;98342.34;6250113;22;19911;-86
2023/12/01 17:41:55;;;;;;;;;;;;;;;7.57;100.00;98337.84;6250241;22;19979;-86
2023/12/01 17:44:20;;;;;;;;;;;;;;;7.57;100.00;98345.75;6275177;22;20346;-86
2023/12/01 17:46:48;;;;;;;;;;;;;;;7.56;100.00;98338.78;6276987;22;19922;-87
2023/12/01 17:49:23;;;;;;;;;;;;;;;7.58;100.00;98341.34;6277258;22;20294;-89
2023/12/01 17:51:49;;;;;;;;;;;;;;;7.58;100.00;98350.09;6276768;22;19918;-86
2023/12/01 17:54:14;;;;;;;;;;;;;;;7.59;100.00;98359.69;6250019;22;19914;-89
2023/12/01 17:56:39;;;;;;;;;;;;;;;7.58;100.00;98365.91;6250293;22;20320;-84
2023/12/01 17:59:04;;;;;;;;;;;;;;;7.59;100.00;98372.03;6275751;22;19915;-85
2023/12/01 18:01:33;;;;;;;;;;;;;;;7.59;100.00;98366.75;6250106;22;19911;-83
2023/12/01 18:03:58;;;;;;;;;;;;;;;7.62;100.00;98377.13;6276920;22;19934;-86
2023/12/01 18:06:23;;;;;;;;;;;;;;;7.63;100.00;98368.31;6276760;22;20330;-89
2023/12/01 18:08:48;;;;;;;;;;;;;;;7.63;100.00;98365.66;6249777;22;19961;-84
2023/12/01 18:11:14;;;;;;;;;;;;;;;7.63;100.00;98365.66;6276943;22;19914;-85
2023/12/01 18:13:40;;;;;;;;;;;;;;;7.64;100.00;98370.00;6248544;22;19911;-88
2023/12/01 18:16:06;;;;;;;;;;;;;;;7.64;100.00;98368.22;6249877;22;19912;-85
2023/12/01 18:18:32;;;;;;;;;;;;;;;7.66;100.00;98372.53;6235238;23;19916;-90
2023/12/01 18:20:59;;;;;;;;;;;;;;;7.66;100.00;98367.28;6245805;23;19935;-86
2023/12/01 18:23:24;;;;;;;;;;;;;;;7.67;100.00;98369.81;6246436;23;19983;-85
2023/12/01 18:25:53;;;;;;;;;;;;;;;7.66;100.00;98359.38;6219096;23;19951;-89
2023/12/01 18:28:27;;;;;;;;;;;;;;;7.68;100.00;98349.63;6217539;23;19990;-93
2023/12/01 18:30:53;;;;;;;;;;;;;;;7.66;100.00;98346.19;6246859;23;19908;-92
2023/12/01 18:33:19;;;;;;;;;;;;;;;7.68;100.00;98360.16;6246157;23;19930;-87
2023/12/01 18:35:47;;;;;;;;;;;;;;;7.69;100.00;98365.34;6245974;23;19916;-86
2023/12/01 18:38:15;;;;;;;;;;;;;;;7.70;100.00;98377.56;6219233;23;19966;-84
2023/12/01 18:40:41;;;;;;;;;;;;;;;7.71;100.00;98381.94;6245431;23;19918;-85
2023/12/01 18:43:07;;;;;;;;;;;;;;;7.73;100.00;98384.47;6245138;23;19912;-90